Time;durP1;ratioP1;P1;durP2;ratioP2;P2;SDS_P1;SDS_P2;PMS_P1;PMS_P2;Temp;Humidity;BMP_temperature;BMP_pressure;BME280_temperature;BME280_humidity;BME280_pressure;Samples;Min_cycle;Max_cycle;Signal;HPM_P1;HPM_P2
2021/03/30 00:02:25;;;;;;;6.78;3.17;;;;;;;;;;10325620;28;20066;-64
2021/03/30 00:07:23;;;;;;;1.47;1.37;;;;;;;;;;10314842;28;20049;-63
2021/03/30 00:12:20;;;;;;;3.40;2.30;;;;;;;;;;10317794;28;20428;-63
2021/03/30 00:17:18;;;;;;;7.33;2.77;;;;;;;;;;10305741;28;20838;-63
2021/03/30 00:22:15;;;;;;;8.97;2.30;;;;;;;;;;10322886;28;20080;-64
2021/03/30 00:27:13;;;;;;;4.23;2.07;;;;;;;;;;10322177;28;20380;-64
2021/03/30 00:32:10;;;;;;;8.10;2.13;;;;;;;;;;10321735;28;20033;-64
2021/03/30 00:37:08;;;;;;;7.87;2.27;;;;;;;;;;10315887;28;20040;-64
2021/03/30 00:42:05;;;;;;;3.00;0.83;;;;;;;;;;10327168;28;20558;-65
2021/03/30 00:47:04;;;;;;;2.50;1.70;;;;;;;;;;10319946;28;20086;-64
2021/03/30 00:52:02;;;;;;;;;;;;;;;;;;10317432;28;20042;-63
2021/03/30 00:57:31;;;;;;;2.00;0.82;;;;;;;;;;10272382;28;19921;-63
2021/03/30 01:02:28;;;;;;;2.20;1.43;;;;;;;;;;10285993;28;20044;-64
2021/03/30 01:07:26;;;;;;;2.97;2.37;;;;;;;;;;10297165;28;20041;-63
2021/03/30 01:12:38;;;;;;;8.93;4.53;;;;;;;;;;10304085;28;20055;-64
2021/03/30 01:17:48;;;;;;;7.32;2.55;;;;;;;;;;10300155;28;20526;-65
2021/03/30 01:23:12;;;;;;;8.05;3.35;;;;;;;;;;10315707;28;20044;-64
2021/03/30 01:28:18;;;;;;;15.68;4.40;;;;;;;;;;10299927;28;20052;-64
2021/03/30 01:33:19;;;;;;;11.05;4.20;;;;;;;;;;10279646;28;20033;-64
2021/03/30 01:38:17;;;;;;;3.15;1.73;;;;;;;;;;10322894;28;20120;-64
2021/03/30 01:43:15;;;;;;;10.23;3.77;;;;;;;;;;10303904;28;20037;-66
2021/03/30 01:48:12;;;;;;;9.00;2.78;;;;;;;;;;10305058;28;20045;-66
2021/03/30 01:53:10;;;;;;;9.90;3.85;;;;;;;;;;10310024;28;20091;-65
2021/03/30 01:58:08;;;;;;;6.93;3.07;;;;;;;;;;10305623;28;20120;-65
2021/03/30 02:03:06;;;;;;;15.93;3.55;;;;;;;;;;10310698;28;20056;-63
2021/03/30 02:08:04;;;;;;;9.13;3.53;;;;;;;;;;10311234;28;20110;-65
2021/03/30 02:13:04;;;;;;;11.30;3.75;;;;;;;;;;10271754;28;21110;-64
2021/03/30 02:18:04;;;;;;;10.13;3.60;;;;;;;;;;10300846;28;20052;-64
2021/03/30 02:23:05;;;;;;;5.10;2.80;;;;;;;;;;10305714;28;20045;-65
2021/03/30 02:28:08;;;;;;;9.25;3.88;;;;;;;;;;10305406;28;20109;-66
2021/03/30 02:33:06;;;;;;;15.55;4.90;;;;;;;;;;10282518;28;20060;-65
2021/03/30 02:38:04;;;;;;;9.48;4.00;;;;;;;;;;10287582;28;20497;-65
2021/03/30 02:43:02;;;;;;;7.32;3.88;;;;;;;;;;10280202;28;20435;-67
2021/03/30 02:48:01;;;;;;;11.48;3.50;;;;;;;;;;10294687;28;20056;-65
2021/03/30 02:52:59;;;;;;;3.65;1.75;;;;;;;;;;10299065;28;20037;-65
2021/03/30 02:57:57;;;;;;;9.07;3.10;;;;;;;;;;10264245;28;20037;-66
2021/03/30 03:02:59;;;;;;;5.17;2.97;;;;;;;;;;10262151;28;20055;-65
2021/03/30 03:07:57;;;;;;;9.52;4.07;;;;;;;;;;10289476;28;20546;-63
2021/03/30 03:12:54;;;;;;;13.57;4.60;;;;;;;;;;10257764;28;20521;-63
2021/03/30 03:17:52;;;;;;;6.73;2.63;;;;;;;;;;10286209;28;21219;-63
2021/03/30 03:22:50;;;;;;;11.17;5.13;;;;;;;;;;10291121;28;20156;-64
2021/03/30 03:27:47;;;;;;;5.93;1.93;;;;;;;;;;10312859;28;20068;-63
2021/03/30 03:32:45;;;;;;;10.27;3.33;;;;;;;;;;10285995;28;20029;-64
2021/03/30 03:37:47;;;;;;;10.17;4.40;;;;;;;;;;10302535;28;20057;-64
2021/03/30 03:42:44;;;;;;;10.25;3.72;;;;;;;;;;10293744;28;20064;-63
2021/03/30 03:47:41;;;;;;;6.73;3.60;;;;;;;;;;10320021;28;20519;-64
2021/03/30 03:52:57;;;;;;;3.30;2.03;;;;;;;;;;10304529;28;20068;-62
2021/03/30 03:57:57;;;;;;;11.80;4.47;;;;;;;;;;10303322;28;20039;-64
2021/03/30 04:02:56;;;;;;;8.18;3.25;;;;;;;;;;10317741;28;20065;-62
2021/03/30 04:08:00;;;;;;;10.60;3.38;;;;;;;;;;10312069;28;20102;-64
2021/03/30 04:12:57;;;;;;;10.65;4.05;;;;;;;;;;10293807;28;20428;-64
2021/03/30 04:17:55;;;;;;;11.80;3.97;;;;;;;;;;10310559;28;20045;-64
2021/03/30 04:22:57;;;;;;;11.57;6.63;;;;;;;;;;10316511;28;20056;-64
2021/03/30 04:27:55;;;;;;;15.73;5.25;;;;;;;;;;10313157;28;20052;-64
2021/03/30 04:32:52;;;;;;;9.60;4.70;;;;;;;;;;10312721;28;20025;-64
2021/03/30 04:37:50;;;;;;;8.40;4.13;;;;;;;;;;10314172;28;20041;-63
2021/03/30 04:42:47;;;;;;;10.50;3.00;;;;;;;;;;10289278;28;20040;-65
2021/03/30 04:47:44;;;;;;;11.70;3.97;;;;;;;;;;10306500;28;20076;-65
2021/03/30 04:52:42;;;;;;;14.83;4.47;;;;;;;;;;10297573;28;20041;-65
2021/03/30 04:57:40;;;;;;;4.90;1.57;;;;;;;;;;10305915;28;20110;-65
2021/03/30 05:02:37;;;;;;;9.50;3.53;;;;;;;;;;10312187;28;20045;-65
2021/03/30 05:07:34;;;;;;;7.77;4.67;;;;;;;;;;10292863;28;20037;-64
2021/03/30 05:12:32;;;;;;;10.47;4.80;;;;;;;;;;10307233;28;20088;-64
2021/03/30 05:17:29;;;;;;;9.07;4.60;;;;;;;;;;10344773;23;20060;-66
2021/03/30 05:22:27;;;;;;;12.60;6.00;;;;;;;;;;10308670;28;20463;-64
2021/03/30 05:27:24;;;;;;;12.20;3.80;;;;;;;;;;10360888;28;20036;-65
2021/03/30 05:32:21;;;;;;;2.80;1.90;;;;;;;;;;10377698;28;21302;-65
2021/03/30 05:37:19;;;;;;;5.53;1.77;;;;;;;;;;10335226;28;20043;-65
2021/03/30 05:42:18;;;;;;;8.67;3.13;;;;;;;;;;10347581;28;20512;-64
2021/03/30 05:47:21;;;;;;;11.80;3.58;;;;;;;;;;10338364;28;20084;-64
2021/03/30 05:52:28;;;;;;;7.53;3.28;;;;;;;;;;10342063;28;20108;-66
2021/03/30 05:57:28;;;;;;;5.72;2.97;;;;;;;;;;10352070;28;20120;-67
2021/03/30 06:02:34;;;;;;;7.88;3.42;;;;;;;;;;10329206;28;20039;-66
2021/03/30 06:07:35;;;;;;;4.90;3.63;;;;;;;;;;10357714;28;20032;-66
2021/03/30 06:12:32;;;;;;;6.63;2.70;;;;;;;;;;10345266;28;20086;-67
2021/03/30 06:17:38;;;;;;;9.13;3.40;;;;;;;;;;10340024;28;20086;-68
2021/03/30 06:22:46;;;;;;;5.90;2.45;;;;;;;;;;10338731;28;20043;-68
2021/03/30 06:27:43;;;;;;;5.38;3.03;;;;;;;;;;10354998;28;20033;-68
2021/03/30 06:32:41;;;;;;;6.97;3.57;;;;;;;;;;10351863;28;20574;-67
2021/03/30 06:37:39;;;;;;;9.47;3.87;;;;;;;;;;10327481;28;20498;-68
2021/03/30 06:43:10;;;;;;;7.97;3.05;;;;;;;;;;10344738;28;20037;-68
2021/03/30 06:48:08;;;;;;;10.07;3.55;;;;;;;;;;10337005;28;20120;-68
2021/03/30 06:53:20;;;;;;;6.73;3.07;;;;;;;;;;10355830;28;20031;-67
2021/03/30 06:58:18;;;;;;;8.93;3.15;;;;;;;;;;10339002;28;20033;-68
2021/03/30 07:03:19;;;;;;;7.38;2.85;;;;;;;;;;10360560;28;20041;-67
2021/03/30 07:08:20;;;;;;;6.95;3.22;;;;;;;;;;10324546;28;20078;-68
2021/03/30 07:13:19;;;;;;;7.18;3.00;;;;;;;;;;10345309;28;20060;-68
2021/03/30 07:18:16;;;;;;;;;;;;;;;;;;10347011;28;21401;-69
2021/03/30 07:23:20;;;;;;;9.88;3.75;;;;;;;;;;10356220;28;19919;-69
2021/03/30 07:28:21;;;;;;;9.32;3.55;;;;;;;;;;10346769;28;20021;-68
2021/03/30 07:33:39;;;;;;;6.72;3.42;;;;;;;;;;10344323;28;20029;-68
2021/03/30 07:38:44;;;;;;;6.47;3.40;;;;;;;;;;10346203;28;20071;-66
2021/03/30 07:43:42;;;;;;;9.90;3.22;;;;;;;;;;10351799;28;20040;-68
2021/03/30 07:48:40;;;;;;;6.07;3.17;;;;;;;;;;10326466;28;20407;-66
2021/03/30 07:53:42;;;;;;;7.65;3.22;;;;;;;;;;10359935;28;20274;-67
2021/03/30 07:58:43;;;;;;;5.70;3.95;;;;;;;;;;10326433;28;21606;-67
2021/03/30 08:03:42;;;;;;;11.90;3.95;;;;;;;;;;10355078;28;20606;-67
2021/03/30 08:09:07;;;;;;;5.13;3.17;;;;;;;;;;10326906;28;20183;-67
2021/03/30 08:14:08;;;;;;;7.78;3.33;;;;;;;;;;10332124;28;20836;-66
2021/03/30 08:19:07;;;;;;;7.57;2.80;;;;;;;;;;10341034;28;20710;-68
2021/03/30 08:24:05;;;;;;;11.32;3.42;;;;;;;;;;10328384;28;20033;-67
2021/03/30 08:29:06;;;;;;;5.35;2.70;;;;;;;;;;10327899;28;20029;-68
2021/03/30 08:34:05;;;;;;;9.48;2.95;;;;;;;;;;10333350;28;20024;-68
2021/03/30 08:39:10;;;;;;;5.28;2.65;;;;;;;;;;10342493;28;20087;-69
2021/03/30 08:44:13;;;;;;;6.97;2.88;;;;;;;;;;10391268;28;20082;-68
2021/03/30 08:49:20;;;;;;;5.32;2.35;;;;;;;;;;10421019;28;20432;-68
2021/03/30 08:54:19;;;;;;;4.43;2.40;;;;;;;;;;10411472;27;20088;-67
2021/03/30 08:59:18;;;;;;;4.53;1.90;;;;;;;;;;10393248;27;20123;-68
2021/03/30 09:04:16;;;;;;;5.13;2.58;;;;;;;;;;10427462;28;20024;-67
2021/03/30 09:09:20;;;;;;;7.23;2.07;;;;;;;;;;10400583;28;20032;-68
2021/03/30 09:14:18;;;;;;;3.65;1.77;;;;;;;;;;10425622;28;20024;-65
2021/03/30 09:19:16;;;;;;;;;;;;;;;;;;10344622;28;20037;-66
2021/03/30 09:29:24;;;;;;;1.55;0.82;;;;;;;;;;10337525;28;20191;-65
2021/03/30 09:34:23;;;;;;;12.35;3.47;;;;;;;;;;10315551;28;20021;-66
2021/03/30 09:39:22;;;;;;;6.95;2.90;;;;;;;;;;10325343;28;20036;-66
2021/03/30 09:44:20;;;;;;;7.03;2.45;;;;;;;;;;10334450;28;20128;-65
2021/03/30 09:49:19;;;;;;;3.15;2.05;;;;;;;;;;10355332;28;20044;-65
2021/03/30 09:54:27;;;;;;;8.18;2.17;;;;;;;;;;10333727;28;20025;-65
2021/03/30 09:59:25;;;;;;;6.97;3.40;;;;;;;;;;10334417;28;20094;-67
2021/03/30 10:04:22;;;;;;;;;;;;;;;;;;10352935;28;20070;-67
2021/03/30 10:09:20;;;;;;;9.65;2.83;;;;;;;;;;10327532;28;19913;-66
2021/03/30 10:14:17;;;;;;;;;;;;;;;;;;10347903;28;20021;-67
2021/03/30 10:19:15;;;;;;;4.85;2.15;;;;;;;;;;10348583;28;20267;-67
2021/03/30 10:24:15;;;;;;;1.88;1.50;;;;;;;;;;10354206;28;20020;-66
2021/03/30 10:29:20;;;;;;;4.95;1.77;;;;;;;;;;10355829;28;20020;-66
2021/03/30 10:34:24;;;;;;;1.80;1.02;;;;;;;;;;10334077;28;20444;-66
2021/03/30 10:39:32;;;;;;;5.78;1.70;;;;;;;;;;10357964;28;20063;-67
2021/03/30 10:44:29;;;;;;;;;;;;;;;;;;10348279;28;20067;-66
2021/03/30 10:49:26;;;;;;;7.07;3.15;;;;;;;;;;10361487;28;19982;-65
2021/03/30 10:54:24;;;;;;;4.50;2.70;;;;;;;;;;10340803;28;20128;-65
2021/03/30 10:59:24;;;;;;;4.07;2.03;;;;;;;;;;10347617;28;20025;-65
2021/03/30 11:04:21;;;;;;;4.75;1.20;;;;;;;;;;10336997;28;20129;-66
2021/03/30 11:09:19;;;;;;;7.27;3.87;;;;;;;;;;10346689;28;20029;-65
2021/03/30 11:14:17;;;;;;;9.50;3.47;;;;;;;;;;10325438;28;20024;-65
2021/03/30 11:19:14;;;;;;;7.70;3.92;;;;;;;;;;10361372;28;20037;-66
2021/03/30 11:24:15;;;;;;;9.90;3.88;;;;;;;;;;10360868;28;20717;-66
2021/03/30 11:29:26;;;;;;;18.05;6.10;;;;;;;;;;10353483;28;20024;-64
2021/03/30 11:39:21;;;;;;;15.30;5.60;;;;;;;;;;10357242;28;20108;-65
2021/03/30 11:44:18;;;;;;;8.18;1.77;;;;;;;;;;10335653;28;20284;-65
2021/03/30 11:49:15;;;;;;;8.77;4.03;;;;;;;;;;10351902;28;20024;-65
2021/03/30 11:54:13;;;;;;;10.23;3.27;;;;;;;;;;10358116;28;20262;-65
2021/03/30 11:59:10;;;;;;;8.23;3.13;;;;;;;;;;10354434;28;20107;-66
2021/03/30 12:04:07;;;;;;;2.83;1.73;;;;;;;;;;10358914;28;20040;-65
2021/03/30 12:09:05;;;;;;;8.93;3.83;;;;;;;;;;10337828;28;20086;-66
2021/03/30 12:14:03;;;;;;;11.70;2.55;;;;;;;;;;10316481;28;20040;-65
2021/03/30 12:19:00;;;;;;;7.30;3.00;;;;;;;;;;10303019;28;20048;-65
2021/03/30 12:23:58;;;;;;;9.70;4.93;;;;;;;;;;10308809;28;20029;-66
2021/03/30 12:28:56;;;;;;;7.25;3.45;;;;;;;;;;10334005;28;20145;-65
2021/03/30 12:33:53;;;;;;;8.45;3.20;;;;;;;;;;10310281;28;20029;-65
2021/03/30 12:38:51;;;;;;;10.77;5.57;;;;;;;;;;10318303;28;20048;-65
2021/03/30 12:43:49;;;;;;;13.90;6.45;;;;;;;;;;10323094;28;20039;-65
2021/03/30 12:48:46;;;;;;;11.50;5.45;;;;;;;;;;10304881;28;20041;-65
2021/03/30 12:53:44;;;;;;;8.80;3.83;;;;;;;;;;10322646;28;20567;-65
2021/03/30 12:58:42;;;;;;;8.90;3.88;;;;;;;;;;10323484;28;20044;-65
2021/03/30 13:03:39;;;;;;;12.03;5.57;;;;;;;;;;10326646;28;20062;-65
2021/03/30 13:08:36;;;;;;;15.10;5.30;;;;;;;;;;10325860;28;20094;-65
2021/03/30 13:13:34;;;;;;;12.37;4.60;;;;;;;;;;10351192;28;20033;-65
2021/03/30 13:18:32;;;;;;;15.10;4.80;;;;;;;;;;10343161;28;20290;-66
2021/03/30 13:23:29;;;;;;;12.02;4.30;;;;;;;;;;10312150;28;20402;-65
2021/03/30 13:28:27;;;;;;;8.10;4.10;;;;;;;;;;10331034;28;20056;-65
2021/03/30 13:33:24;;;;;;;12.03;5.87;;;;;;;;;;10315876;28;20040;-65
2021/03/30 13:38:22;;;;;;;11.70;5.13;;;;;;;;;;10329157;28;20973;-65
2021/03/30 13:43:19;;;;;;;4.95;2.22;;;;;;;;;;10342076;28;20040;-65
2021/03/30 13:48:16;;;;;;;3.40;1.60;;;;;;;;;;10315926;28;20105;-65
2021/03/30 13:53:14;;;;;;;2.17;1.20;;;;;;;;;;10306035;28;20291;-65
2021/03/30 13:58:11;;;;;;;9.57;4.23;;;;;;;;;;10345604;28;20041;-66
2021/03/30 14:03:09;;;;;;;15.80;5.10;;;;;;;;;;10350433;28;20153;-65
2021/03/30 14:08:06;;;;;;;12.13;4.50;;;;;;;;;;10339617;28;20033;-66
2021/03/30 14:18:29;;;;;;;10.07;3.90;;;;;;;;;;10333235;28;20047;-65
2021/03/30 14:23:26;;;;;;;8.50;4.10;;;;;;;;;;10348931;28;20812;-65
2021/03/30 14:28:24;;;;;;;9.73;5.33;;;;;;;;;;10342668;28;20159;-65
2021/03/30 14:33:21;;;;;;;14.13;4.83;;;;;;;;;;10337039;28;21125;-65
2021/03/30 14:38:19;;;;;;;9.57;4.17;;;;;;;;;;10349142;28;20278;-65
2021/03/30 14:43:21;;;;;;;10.05;4.43;;;;;;;;;;10336622;28;20474;-65
2021/03/30 14:53:37;;;;;;;9.73;4.97;;;;;;;;;;10353181;28;20070;-65
2021/03/30 14:58:38;;;;;;;15.70;4.95;;;;;;;;;;10334180;28;20029;-65
2021/03/30 15:03:39;;;;;;;13.40;5.53;;;;;;;;;;10333910;28;20040;-64
2021/03/30 15:08:37;;;;;;;16.23;5.75;;;;;;;;;;10349936;28;20036;-65
2021/03/30 15:13:34;;;;;;;10.57;5.70;;;;;;;;;;10262285;23;20089;-67
2021/03/30 15:18:32;;;;;;;16.83;6.22;;;;;;;;;;10229980;28;20292;-68
2021/03/30 15:23:30;;;;;;;14.25;6.03;;;;;;;;;;10268243;28;20042;-67
2021/03/30 15:28:27;;;;;;;12.03;5.67;;;;;;;;;;10271582;28;21384;-67
2021/03/30 15:33:26;;;;;;;3.33;1.13;;;;;;;;;;10265749;28;20033;-67
2021/03/30 15:38:24;;;;;;;11.93;1.80;;;;;;;;;;10285153;28;20044;-67
2021/03/30 15:43:22;;;;;;;4.93;1.95;;;;;;;;;;10284448;22;20131;-64
2021/03/30 15:48:20;;;;;;;2.38;1.10;;;;;;;;;;10301421;28;21105;-64
2021/03/30 15:53:19;;;;;;;12.75;5.40;;;;;;;;;;10318881;28;20370;-62
2021/03/30 15:58:17;;;;;;;12.00;5.97;;;;;;;;;;10308151;28;20033;-62
2021/03/30 16:03:14;;;;;;;13.13;5.33;;;;;;;;;;10321275;28;20043;-62
2021/03/30 16:08:12;;;;;;;5.93;2.33;;;;;;;;;;10319126;28;20514;-62
2021/03/30 16:13:09;;;;;;;6.93;3.50;;;;;;;;;;10314480;28;20178;-63
2021/03/30 16:18:07;;;;;;;2.60;0.75;;;;;;;;;;10333661;28;20059;-62
2021/03/30 16:23:04;;;;;;;1.90;1.02;;;;;;;;;;10327293;28;20564;-62
2021/03/30 16:28:01;;;;;;;0.95;0.40;;;;;;;;;;10311539;28;20041;-62
2021/03/30 16:32:59;;;;;;;1.17;1.07;;;;;;;;;;10328458;28;20033;-63
2021/03/30 16:37:56;;;;;;;2.88;0.50;;;;;;;;;;10302457;28;20037;-62
2021/03/30 16:42:54;;;;;;;4.87;2.17;;;;;;;;;;10311630;28;20043;-62
2021/03/30 16:47:51;;;;;;;2.07;1.00;;;;;;;;;;10314356;28;21500;-64
2021/03/30 16:52:48;;;;;;;7.60;3.17;;;;;;;;;;10307540;28;20083;-63
2021/03/30 16:57:46;;;;;;;7.63;3.23;;;;;;;;;;10319213;28;20515;-62
2021/03/30 17:02:43;;;;;;;4.05;1.67;;;;;;;;;;10322699;28;21039;-65
2021/03/30 17:07:41;;;;;;;2.97;0.93;;;;;;;;;;10324100;28;20044;-64
2021/03/30 17:12:38;;;;;;;7.05;1.58;;;;;;;;;;10313610;22;20045;-64
2021/03/30 17:17:36;;;;;;;0.55;0.40;;;;;;;;;;10258861;28;20051;-65
2021/03/30 17:22:34;;;;;;;2.92;0.60;;;;;;;;;;10280987;28;20128;-65
2021/03/30 17:27:31;;;;;;;2.10;0.90;;;;;;;;;;10281940;28;20049;-65
2021/03/30 17:32:29;;;;;;;0.60;0.40;;;;;;;;;;10246656;28;20044;-65
2021/03/30 17:37:26;;;;;;;;;;;;;;;;;;10292502;28;21572;-65
2021/03/30 17:42:24;;;;;;;1.25;0.70;;;;;;;;;;10319717;22;19903;-66
2021/03/30 17:47:24;;;;;;;2.10;0.77;;;;;;;;;;10202696;22;20095;-66
2021/03/30 17:52:21;;;;;;;2.17;0.70;;;;;;;;;;10261475;28;20029;-65
2021/03/30 17:57:19;;;;;;;;;;;;;;;;;;10281546;28;20037;-65
2021/03/30 18:02:20;;;;;;;3.10;0.93;;;;;;;;;;10276721;28;20326;-64
2021/03/30 18:07:17;;;;;;;;;;;;;;;;;;10264415;28;20037;-64
2021/03/30 18:12:14;;;;;;;4.28;1.48;;;;;;;;;;10276608;28;20011;-65
2021/03/30 18:17:12;;;;;;;;;;;;;;;;;;10265861;23;20034;-64
2021/03/30 18:22:10;;;;;;;3.30;1.03;;;;;;;;;;10221557;28;19967;-64
2021/03/30 18:27:08;;;;;;;1.65;0.82;;;;;;;;;;10235729;28;20126;-66
2021/03/30 18:32:06;;;;;;;2.05;1.17;;;;;;;;;;10276521;28;20026;-65
2021/03/30 18:37:03;;;;;;;3.28;1.13;;;;;;;;;;10235803;28;20107;-67
2021/03/30 18:42:01;;;;;;;4.28;1.10;;;;;;;;;;10246345;23;20045;-65
2021/03/30 18:46:58;;;;;;;0.50;0.50;;;;;;;;;;10261495;28;20034;-63
2021/03/30 18:51:56;;;;;;;1.83;1.10;;;;;;;;;;10299242;28;20060;-64
2021/03/30 18:56:56;;;;;;;2.57;0.80;;;;;;;;;;10304810;28;20051;-66
2021/03/30 19:01:53;;;;;;;1.70;0.52;;;;;;;;;;10311056;28;20036;-66
2021/03/30 19:06:50;;;;;;;1.13;0.82;;;;;;;;;;10304384;28;20579;-66
2021/03/30 19:11:48;;;;;;;5.13;1.53;;;;;;;;;;10282898;23;20264;-64
2021/03/30 19:16:45;;;;;;;2.03;1.50;;;;;;;;;;10293725;28;20036;-66
2021/03/30 19:21:43;;;;;;;1.03;0.73;;;;;;;;;;10314238;28;20031;-64
2021/03/30 19:26:41;;;;;;;4.47;1.20;;;;;;;;;;10326360;22;20589;-66
2021/03/30 19:31:44;;;;;;;4.43;1.90;;;;;;;;;;10332799;28;20044;-65
2021/03/30 19:36:42;;;;;;;2.40;1.38;;;;;;;;;;10316631;28;20040;-66
2021/03/30 19:41:40;;;;;;;2.90;1.60;;;;;;;;;;10348378;28;20127;-65
2021/03/30 19:46:37;;;;;;;7.77;2.07;;;;;;;;;;10347441;28;20128;-66
2021/03/30 19:51:34;;;;;;;2.90;1.03;;;;;;;;;;10363450;28;20051;-65
2021/03/30 19:56:32;;;;;;;2.60;1.20;;;;;;;;;;10424053;22;20270;-64
2021/03/30 20:01:30;;;;;;;19.10;11.00;;;;;;;;;;10250269;28;20029;-67
2021/03/30 20:06:27;;;;;;;29.37;15.07;;;;;;;;;;10274722;28;21707;-64
2021/03/30 20:11:24;;;;;;;18.27;11.77;;;;;;;;;;10239662;28;20117;-64
2021/03/30 20:16:22;;;;;;;26.40;12.73;;;;;;;;;;10229430;28;20605;-64
2021/03/30 20:21:19;;;;;;;24.03;13.20;;;;;;;;;;10285815;28;20038;-64
2021/03/30 20:26:17;;;;;;;28.37;13.83;;;;;;;;;;10290888;28;20430;-66
2021/03/30 20:31:14;;;;;;;30.73;14.33;;;;;;;;;;10297602;28;20099;-63
2021/03/30 20:36:12;;;;;;;26.73;12.40;;;;;;;;;;10282676;28;20037;-62
2021/03/30 20:41:09;;;;;;;22.90;12.13;;;;;;;;;;10294311;28;20041;-64
2021/03/30 20:46:10;;;;;;;24.97;12.90;;;;;;;;;;10267035;28;20044;-65
2021/03/30 20:51:07;;;;;;;24.70;13.30;;;;;;;;;;10287003;28;20095;-64
2021/03/30 20:56:05;;;;;;;26.47;13.27;;;;;;;;;;10261231;28;20508;-65
2021/03/30 21:01:03;;;;;;;24.43;10.03;;;;;;;;;;10271573;28;20036;-63
2021/03/30 21:06:00;;;;;;;13.38;6.97;;;;;;;;;;10292691;28;20046;-64
2021/03/30 21:10:58;;;;;;;19.70;8.97;;;;;;;;;;10270778;28;20200;-66
2021/03/30 21:15:56;;;;;;;26.77;13.47;;;;;;;;;;10274639;28;20426;-64
2021/03/30 21:20:53;;;;;;;25.10;12.97;;;;;;;;;;10283020;28;20630;-63
2021/03/30 21:25:51;;;;;;;25.43;12.90;;;;;;;;;;10305543;22;20059;-67
2021/03/30 21:30:49;;;;;;;30.50;14.13;;;;;;;;;;10334450;28;20044;-65
2021/03/30 21:35:47;;;;;;;28.20;14.63;;;;;;;;;;10348045;28;20083;-66
2021/03/30 21:40:44;;;;;;;27.58;13.85;;;;;;;;;;10342169;28;20051;-66
2021/03/30 21:45:42;;;;;;;29.00;14.13;;;;;;;;;;10343037;28;20041;-65
2021/03/30 21:50:39;;;;;;;20.80;12.17;;;;;;;;;;10357988;28;20051;-66
2021/03/30 21:55:37;;;;;;;37.17;13.73;;;;;;;;;;10342167;22;20278;-68
2021/03/30 22:00:34;;;;;;;25.10;12.77;;;;;;;;;;10226843;23;20748;-65
2021/03/30 22:05:32;;;;;;;35.43;14.10;;;;;;;;;;10279929;28;20131;-65
2021/03/30 22:10:32;;;;;;;31.73;13.30;;;;;;;;;;10262308;28;20037;-66
2021/03/30 22:15:30;;;;;;;30.83;14.50;;;;;;;;;;10280819;28;20511;-66
2021/03/30 22:20:29;;;;;;;31.70;15.23;;;;;;;;;;10282283;28;20512;-65
2021/03/30 22:25:27;;;;;;;30.70;15.63;;;;;;;;;;10279395;28;20862;-65
2021/03/30 22:30:27;;;;;;;32.20;16.30;;;;;;;;;;10288788;28;20028;-66
2021/03/30 22:35:26;;;;;;;26.80;14.38;;;;;;;;;;10259289;22;20077;-69
2021/03/30 22:40:23;;;;;;;28.50;12.45;;;;;;;;;;10263149;28;20120;-65
2021/03/30 22:45:21;;;;;;;33.60;14.40;;;;;;;;;;10276416;28;20480;-65
2021/03/30 22:50:18;;;;;;;29.60;12.93;;;;;;;;;;10282485;28;20495;-65
2021/03/30 22:55:16;;;;;;;30.47;13.67;;;;;;;;;;10284213;28;20080;-65
2021/03/30 23:00:16;;;;;;;22.73;11.70;;;;;;;;;;10255346;28;20140;-65
2021/03/30 23:05:13;;;;;;;20.00;10.30;;;;;;;;;;10285006;28;20057;-66
2021/03/30 23:10:15;;;;;;;12.57;7.40;;;;;;;;;;10292391;22;20052;-64
2021/03/30 23:15:13;;;;;;;13.80;7.75;;;;;;;;;;10316786;28;20415;-65
2021/03/30 23:20:12;;;;;;;21.80;12.38;;;;;;;;;;10309756;28;20121;-64
2021/03/30 23:25:10;;;;;;;32.25;14.93;;;;;;;;;;10309128;28;20037;-64
2021/03/30 23:30:09;;;;;;;23.38;9.88;;;;;;;;;;10329693;28;20090;-63
2021/03/30 23:35:11;;;;;;;19.27;9.75;;;;;;;;;;10329438;28;20047;-64
2021/03/30 23:40:09;;;;;;;32.33;14.75;;;;;;;;;;10306947;28;20316;-65
2021/03/30 23:45:07;;;;;;;21.92;10.02;;;;;;;;;;10319235;28;20040;-65
2021/03/30 23:50:05;;;;;;;23.50;11.48;;;;;;;;;;10308658;28;20029;-64
2021/03/30 23:55:03;;;;;;;;;;;;;;;;;;10310436;28;20036;-64
